If you wish to contribute or participate in the discussions about articles you are invited to join SKYbrary as a registered user

 Actions

Ain Arnat Airport

From SKYbrary Wiki

DAAS
Airport
ICAO: DAAS – IATA: QSF
Summary
Name Ain Arnat Airport
Region Africa
Territory Algeria DZ.gif
Location , Setif
Serving Setif
Elevation 1,024.128 m
3,360 ft
3,360 ft1,024.128 m
Type medium airport
Coordinates 36° 10' 41.16" N, 5° 19' 28.16" E
Runways
Designator Length Width Surface ROPS


METAR
Observation DAAS 230600Z 00000KT 9999 FEW030 20/17 Q1022
Station Setif
Date/Time 23 August 2019 06:00:00
Wind direction
Wind speed 00 kts
Lowest cloud amount few clouds
Temperature 20°C
Dew point 17°C
Humidity 82%
QNH 1022 hPa
Weather condition n/a